Dunswell, United Kingdom
Current Conditions -  °F | °C
As of 3:50 PM on Friday 28 Nov 2014 (Local Time) from EGXV Reporting Station
Haze Haze  
Wind Chill: 50°   Ceiling: 400
Heat Index: 50°   Visibility: 2.1mi
Dew Point: 48°   Wind: 9mph
Humidity: 94%   Direction: 90°E
Pressure: 29.74"   Gusts: NA
Location:  53.8°N, 0.37°W
Report Text: EGXV 281550Z AUTO 09008KT 3500 BR OVC004/// 10/09 Q1007 RERA
Loading
Personal Weather Stations






























Interactive Weather Map New forecast layout! Learn more

10-Day Weather Forecast

Advertisements
Track Severe Weather on mobile